Terminal Aerodrome Forecast
Issued by NWS

Home | Current Version | Previous Version | Text Only | Print | Product List | Glossary On
Versions: 1 2 3 4 5 6 7 8 9 10 11 12 13 14 15 16 17 18 19 20 21 22 23 24 25 26 27 28 29 30
000
FTUS44 KJAN 191740
TAFPIB
TAF
KPIB 191740Z 1918/2018 31014G23KT P6SM -SHRA SCT035 BKN050
     FM200100 29007KT P6SM BKN050 BKN100
     FM201500 31016G23KT P6SM SKC=

USA.gov is the U.S. government's official web portal to all federal, state and local government web resources and services.